createdAt,value
2019-02-04T00:01:27.539Z,24.30
2019-02-04T00:03:56.970Z,29.70
2019-02-04T00:06:26.087Z,25.63
2019-02-04T00:08:55.191Z,33.80
2019-02-04T00:11:24.307Z,27.00
2019-02-04T00:13:53.782Z,24.77
2019-02-04T00:16:22.899Z,26.83
2019-02-04T00:18:52.006Z,28.03
2019-02-04T00:21:21.125Z,27.30
2019-02-04T00:23:50.245Z,24.00
2019-02-04T00:26:19.360Z,27.60
2019-02-04T00:28:48.471Z,25.90
2019-02-04T00:31:17.668Z,23.87
2019-02-04T00:33:46.779Z,22.17
2019-02-04T00:36:15.886Z,29.73
2019-02-04T00:38:44.991Z,30.43
2019-02-04T00:41:14.122Z,27.03
2019-02-04T00:43:44.296Z,24.97
2019-02-04T00:46:13.791Z,27.20
2019-02-04T00:48:42.904Z,26.40
2019-02-04T00:51:12.008Z,32.47
2019-02-04T00:53:41.126Z,28.27
2019-02-04T00:56:10.231Z,27.30
2019-02-04T00:58:39.347Z,37.27
2019-02-04T01:01:08.726Z,30.83
2019-02-04T01:03:37.840Z,28.83
2019-02-04T01:06:06.951Z,33.47
2019-02-04T01:08:36.071Z,30.63
2019-02-04T01:11:05.176Z,34.10
2019-02-04T01:13:35.258Z,34.67
2019-02-04T01:16:04.766Z,32.37
2019-02-04T01:18:33.876Z,31.90
2019-02-04T01:21:02.979Z,33.60
2019-02-04T01:23:32.183Z,28.23
2019-02-04T01:26:01.288Z,35.73
2019-02-04T01:28:30.404Z,33.50
2019-02-04T01:30:59.507Z,32.13
2019-02-04T01:33:28.623Z,33.23
2019-02-04T01:35:58.812Z,32.10
2019-02-04T01:38:27.922Z,40.67
2019-02-04T01:40:57.031Z,28.07
2019-02-04T01:43:26.520Z,30.50
2019-02-04T01:45:55.628Z,27.20
2019-02-04T01:48:24.739Z,30.30
2019-02-04T01:50:53.845Z,29.80
2019-02-04T01:53:22.967Z,29.83
2019-02-04T01:55:52.070Z,31.83
2019-02-04T01:58:21.601Z,31.33
2019-02-04T02:00:50.698Z,27.93
2019-02-04T02:03:19.869Z,29.43
2019-02-04T02:05:49.396Z,37.17
2019-02-04T02:08:18.684Z,28.53
2019-02-04T02:10:47.827Z,27.97
2019-02-04T02:13:17.303Z,27.13
2019-02-04T02:15:46.406Z,28.70
2019-02-04T02:18:15.527Z,25.93
2019-02-04T02:20:44.635Z,25.63
2019-02-04T02:23:13.746Z,26.40
2019-02-04T02:25:42.864Z,26.20
2019-02-04T02:28:15.446Z,31.47
2019-02-04T02:30:43.749Z,30.67
2019-02-04T02:33:12.862Z,28.23
2019-02-04T02:35:41.978Z,29.30
2019-02-04T02:38:11.084Z,29.70
2019-02-04T02:40:40.675Z,27.80
2019-02-04T02:43:11.766Z,27.07
2019-02-04T02:45:41.620Z,28.20
2019-02-04T02:48:10.744Z,31.07
2019-02-04T02:50:39.863Z,27.20
2019-02-04T02:53:08.975Z,26.53
2019-02-04T02:55:38.482Z,29.53
2019-02-04T02:58:13.196Z,27.33
2019-02-04T03:00:55.552Z,30.07
2019-02-04T03:03:24.655Z,26.13
2019-02-04T03:05:53.788Z,35.53
2019-02-04T03:08:22.887Z,28.57
2019-02-04T03:10:52.010Z,27.37
2019-02-04T03:13:21.118Z,35.83
2019-02-04T03:15:50.273Z,28.47
2019-02-04T03:18:19.374Z,28.03
2019-02-04T03:20:48.871Z,30.00
2019-02-04T03:23:19.022Z,31.63
2019-02-04T03:25:48.144Z,33.10
2019-02-04T03:28:17.262Z,32.77
2019-02-04T03:30:46.644Z,25.60
2019-02-04T03:33:15.858Z,26.53
2019-02-04T03:35:45.345Z,28.93
2019-02-04T03:38:14.488Z,30.40
2019-02-04T03:40:45.367Z,31.77
2019-02-04T03:43:14.454Z,31.93
2019-02-04T03:45:43.584Z,36.33
2019-02-04T03:48:12.687Z,40.87
2019-02-04T03:50:41.814Z,31.77
2019-02-04T03:53:10.951Z,27.90
2019-02-04T03:55:40.071Z,32.90
2019-02-04T03:58:10.821Z,30.10
2019-02-04T04:00:39.983Z,37.23
2019-02-04T04:03:09.368Z,42.73
2019-02-04T04:05:38.500Z,54.00
2019-02-04T04:08:07.590Z,59.00
2019-02-04T04:10:36.707Z,70.03
2019-02-04T04:13:05.822Z,68.50
2019-02-04T04:15:34.948Z,72.10
2019-02-04T04:18:15.125Z,73.73
2019-02-04T04:20:35.218Z,77.63
2019-02-04T04:23:04.315Z,75.03
2019-02-04T04:25:33.525Z,77.57
2019-02-04T04:28:02.698Z,76.80
2019-02-04T04:30:31.803Z,77.27
2019-02-04T04:33:00.904Z,84.13
2019-02-04T04:35:30.013Z,74.57
2019-02-04T04:37:59.121Z,83.63
2019-02-04T04:40:28.229Z,75.57
2019-02-04T04:42:57.329Z,77.57
2019-02-04T04:45:27.473Z,80.43
2019-02-04T04:47:56.575Z,86.30
2019-02-04T04:50:25.684Z,88.97
2019-02-04T04:52:54.785Z,84.03
2019-02-04T04:55:27.003Z,74.53
2019-02-04T04:57:56.098Z,87.47
2019-02-04T05:00:27.717Z,80.57
2019-02-04T05:02:56.831Z,75.97
2019-02-04T05:05:25.983Z,86.07
2019-02-04T05:07:55.091Z,78.23
2019-02-04T05:10:25.164Z,76.17
2019-02-04T05:12:54.359Z,86.70
2019-02-04T05:15:25.480Z,76.57
2019-02-04T05:17:54.586Z,80.10
2019-02-04T05:20:23.679Z,83.03
2019-02-04T05:22:52.792Z,89.30
2019-02-04T05:25:21.882Z,83.57
2019-02-04T05:27:50.993Z,77.97
2019-02-04T05:30:21.835Z,84.17
2019-02-04T05:32:50.945Z,87.60
2019-02-04T05:35:20.051Z,85.97
2019-02-04T05:37:49.161Z,88.73
2019-02-04T05:40:18.383Z,84.23
2019-02-04T05:42:47.876Z,93.60
2019-02-04T05:45:20.803Z,79.00
2019-02-04T05:47:50.876Z,84.03
2019-02-04T05:50:23.230Z,71.37
2019-02-04T05:52:52.345Z,81.70
2019-02-04T05:55:22.433Z,74.83
2019-02-04T05:57:51.683Z,72.43
2019-02-04T06:00:28.179Z,78.90
2019-02-04T06:02:57.366Z,74.10
2019-02-04T06:05:29.529Z,73.77
2019-02-04T06:07:59.094Z,73.63
2019-02-04T06:10:28.197Z,70.90
2019-02-04T06:12:57.298Z,65.77
2019-02-04T06:15:29.429Z,70.20
2019-02-04T06:18:00.191Z,66.87
2019-02-04T06:20:29.490Z,63.40
2019-02-04T06:22:58.594Z,69.40
2019-02-04T06:25:27.701Z,73.00
2019-02-04T06:27:56.812Z,58.70
2019-02-04T06:30:25.944Z,58.43
2019-02-04T06:32:55.051Z,56.37
2019-02-04T06:35:25.142Z,63.03
2019-02-04T06:37:54.246Z,55.50
2019-02-04T06:40:23.345Z,61.27
2019-02-04T06:42:52.472Z,62.63
2019-02-04T06:45:21.580Z,62.07
2019-02-04T06:47:51.055Z,61.73
2019-02-04T06:50:20.694Z,52.70
2019-02-04T06:52:49.806Z,61.63
2019-02-04T06:55:22.170Z,55.00
2019-02-04T06:57:51.307Z,59.03
2019-02-04T07:00:20.453Z,59.10
2019-02-04T07:02:49.596Z,63.40
2019-02-04T07:05:19.137Z,58.67
2019-02-04T07:07:48.273Z,63.80
2019-02-04T07:10:22.904Z,58.63
2019-02-04T07:12:52.021Z,56.70
2019-02-04T07:15:21.098Z,54.40
2019-02-04T07:17:50.211Z,55.23
2019-02-04T07:20:23.854Z,54.50
2019-02-04T07:22:53.930Z,61.00
2019-02-04T07:25:23.379Z,58.13
2019-02-04T07:27:52.477Z,53.13
2019-02-04T07:30:27.036Z,60.37
2019-02-04T07:32:56.419Z,51.10
2019-02-04T07:35:26.505Z,47.57
2019-02-04T07:37:55.679Z,53.17
2019-02-04T07:40:27.534Z,42.50
2019-02-04T07:42:56.727Z,49.63
2019-02-04T07:45:25.849Z,55.00
2019-02-04T07:47:54.955Z,51.37
2019-02-04T07:50:24.071Z,49.80
2019-02-04T07:52:53.177Z,57.70
2019-02-04T07:55:23.351Z,47.33
2019-02-04T07:57:52.458Z,49.10
2019-02-04T08:00:23.415Z,38.63
2019-02-04T08:02:52.509Z,43.80
2019-02-04T08:05:23.290Z,43.27
2019-02-04T08:07:52.377Z,51.30
2019-02-04T08:10:21.486Z,41.90
2019-02-04T08:13:00.871Z,44.73
2019-02-04T08:15:26.729Z,42.50
2019-02-04T08:17:56.471Z,39.73
2019-02-04T08:20:26.414Z,40.80
2019-02-04T08:22:55.515Z,41.47
2019-02-04T08:25:25.921Z,37.80
2019-02-04T08:27:55.630Z,37.43
2019-02-04T08:30:27.846Z,39.93
2019-02-04T08:32:56.948Z,38.43
2019-02-04T08:35:26.063Z,35.27
2019-02-04T08:37:55.165Z,33.47
2019-02-04T08:40:24.289Z,34.17
2019-02-04T08:42:53.662Z,31.03
2019-02-04T08:45:24.394Z,35.60
2019-02-04T08:47:53.490Z,29.93
2019-02-04T08:50:26.758Z,32.53
2019-02-04T08:52:55.929Z,29.53
2019-02-04T08:55:26.123Z,28.90
2019-02-04T08:58:01.482Z,28.87
2019-02-04T09:00:34.756Z,26.73
2019-02-04T09:03:03.934Z,28.87
2019-02-04T09:05:34.686Z,25.73
2019-02-04T09:08:03.812Z,23.93
2019-02-04T09:10:35.423Z,27.00
2019-02-04T09:13:07.491Z,25.10
2019-02-04T09:15:36.666Z,24.97
2019-02-04T09:18:06.186Z,24.57
2019-02-04T09:20:37.380Z,24.50
2019-02-04T09:23:08.179Z,24.87
2019-02-04T09:25:38.998Z,24.93
2019-02-04T09:28:08.084Z,22.70
2019-02-04T09:30:37.200Z,23.43
2019-02-04T09:33:06.297Z,23.63
2019-02-04T09:35:35.416Z,24.70
2019-02-04T09:38:05.491Z,23.30
2019-02-04T09:40:40.067Z,20.17
2019-02-04T09:43:09.308Z,17.53
2019-02-04T09:45:38.803Z,20.63
2019-02-04T09:48:11.286Z,21.43
2019-02-04T09:50:42.647Z,20.13
2019-02-04T09:53:11.947Z,18.37
2019-02-04T09:55:41.041Z,16.70
2019-02-04T09:58:10.142Z,23.67
2019-02-04T10:00:40.236Z,19.63
2019-02-04T10:03:09.367Z,18.57
2019-02-04T10:05:38.713Z,16.43
2019-02-04T10:08:07.978Z,17.43
2019-02-04T10:10:37.141Z,16.70
2019-02-04T10:13:07.243Z,14.70
2019-02-04T10:15:41.382Z,15.20
2019-02-04T10:18:11.174Z,14.17
2019-02-04T10:20:40.552Z,16.87
2019-02-04T10:23:09.999Z,16.13
2019-02-04T10:25:42.573Z,18.80
2019-02-04T10:28:13.663Z,15.27
2019-02-04T10:30:42.985Z,16.03
2019-02-04T10:33:12.448Z,12.07
2019-02-04T10:35:41.607Z,18.47
2019-02-04T10:38:10.714Z,15.80
2019-02-04T10:40:39.906Z,14.83
2019-02-04T10:43:09.018Z,20.63
2019-02-04T10:45:38.181Z,14.77
2019-02-04T10:48:07.657Z,14.03
2019-02-04T10:50:46.287Z,12.10
2019-02-04T10:53:10.964Z,15.30
2019-02-04T10:55:40.488Z,16.17
2019-02-04T10:58:11.691Z,14.97
2019-02-04T11:00:41.825Z,13.03
2019-02-04T11:03:10.992Z,14.27
2019-02-04T11:05:41.918Z,14.87
2019-02-04T11:11:20.808Z,15.03
2019-02-04T11:17:16.965Z,16.77
2019-02-04T11:19:47.396Z,16.10
2019-02-04T11:22:18.256Z,15.70
2019-02-04T11:24:48.513Z,17.93
2019-02-04T11:27:42.141Z,12.80
2019-02-04T11:30:20.142Z,12.10
2019-02-04T11:32:49.288Z,16.87
2019-02-04T11:35:18.429Z,15.93
2019-02-04T11:37:47.547Z,15.10
2019-02-04T11:40:27.730Z,15.63
2019-02-04T11:43:02.341Z,15.43
2019-02-04T11:45:36.325Z,14.93
2019-02-04T11:48:08.219Z,12.50
2019-02-04T11:50:37.488Z,14.53
2019-02-04T11:53:06.717Z,12.63
2019-02-04T11:55:38.526Z,14.90
2019-02-04T11:58:54.700Z,13.33
2019-02-04T12:01:12.227Z,13.60
2019-02-04T12:03:41.333Z,12.07
2019-02-04T12:06:10.606Z,12.07
2019-02-04T12:08:40.797Z,12.77
2019-02-04T12:11:10.195Z,12.03
2019-02-04T12:13:39.309Z,10.90
2019-02-04T12:16:10.026Z,11.10
2019-02-04T12:18:39.136Z,12.07
2019-02-04T12:21:08.234Z,12.20
2019-02-04T12:23:37.338Z,12.27
2019-02-04T12:26:06.437Z,14.53
2019-02-04T12:28:37.163Z,10.77
2019-02-04T12:31:06.295Z,15.50
2019-02-04T12:33:39.815Z,11.00
2019-02-04T12:36:09.035Z,11.73
2019-02-04T12:38:46.324Z,12.87
2019-02-04T12:41:14.063Z,12.03
2019-02-04T12:43:43.162Z,12.70
2019-02-04T12:46:12.262Z,11.07
2019-02-04T12:48:43.006Z,12.27
2019-02-04T12:51:12.821Z,13.33
2019-02-04T12:53:45.199Z,12.47
2019-02-04T12:56:17.171Z,12.27
2019-02-04T13:02:00.604Z,15.43
2019-02-04T13:07:33.315Z,14.33
2019-02-04T13:10:06.112Z,18.00
2019-02-04T13:12:42.417Z,11.20
2019-02-04T13:18:48.168Z,16.33
2019-02-04T13:21:17.339Z,10.23
2019-02-04T13:23:46.430Z,13.27
2019-02-04T13:26:17.180Z,12.13
2019-02-04T13:28:50.537Z,11.70
2019-02-04T13:31:22.331Z,11.17
2019-02-04T13:33:51.441Z,11.17
2019-02-04T13:36:20.543Z,12.50
2019-02-04T13:38:49.667Z,10.10
2019-02-04T13:41:19.148Z,10.57
2019-02-04T13:43:48.244Z,9.87
2019-02-04T13:46:18.965Z,12.97
2019-02-04T13:48:49.745Z,10.17
2019-02-04T13:51:19.686Z,10.13
2019-02-04T13:53:48.780Z,16.70
2019-02-04T13:56:17.892Z,14.30
2019-02-04T13:58:46.983Z,11.27
2019-02-04T14:01:16.084Z,10.73
2019-02-04T14:03:45.198Z,12.73
2019-02-04T14:06:14.294Z,12.63
2019-02-04T14:08:53.236Z,12.47
2019-02-04T14:14:40.087Z,12.20
2019-02-04T14:27:30.734Z,11.03
2019-02-04T14:29:59.895Z,11.37
2019-02-04T14:32:31.255Z,14.50
2019-02-04T14:35:00.352Z,11.77
2019-02-04T14:37:29.456Z,12.50
2019-02-04T14:40:01.398Z,11.80
2019-02-04T14:42:40.900Z,12.43
2019-02-04T14:45:11.188Z,13.00
2019-02-04T14:47:40.639Z,11.13
2019-02-04T14:50:18.782Z,11.77
2019-02-04T14:52:51.151Z,11.37
2019-02-04T14:55:50.289Z,11.33
2019-02-04T14:58:22.641Z,10.40
2019-02-04T15:01:11.773Z,10.60
2019-02-04T15:03:50.181Z,14.07
2019-02-04T15:06:42.482Z,10.80
2019-02-04T15:09:33.088Z,14.60
2019-02-04T15:12:11.254Z,10.77
2019-02-04T15:14:58.636Z,13.07
2019-02-04T15:17:28.591Z,12.70
2019-02-04T15:20:00.927Z,9.73
2019-02-04T15:22:42.483Z,11.03
2019-02-04T15:25:29.774Z,12.13
2019-02-04T15:28:11.287Z,13.77
2019-02-04T15:30:52.682Z,11.00
2019-02-04T15:33:37.502Z,10.87
2019-02-04T15:36:23.076Z,11.73
2019-02-04T15:38:58.319Z,8.70
2019-02-04T15:41:33.190Z,11.70
2019-02-04T15:44:12.174Z,11.67
2019-02-04T15:46:50.356Z,10.37
2019-02-04T15:49:32.081Z,12.70
2019-02-04T15:52:01.519Z,12.17
2019-02-04T15:54:31.581Z,11.90
2019-02-04T15:57:00.683Z,10.20
2019-02-04T15:59:29.780Z,11.50
2019-02-04T16:01:58.879Z,11.63
2019-02-04T16:04:33.375Z,9.90
2019-02-04T16:07:03.610Z,12.80
2019-02-04T16:09:32.771Z,13.30
2019-02-04T16:12:01.864Z,10.13
2019-02-04T16:20:29.221Z,12.00
2019-02-04T16:23:09.375Z,10.83
2019-02-04T16:25:39.894Z,10.50
2019-02-04T16:28:15.233Z,9.37
2019-02-04T16:30:44.404Z,11.53
2019-02-04T16:33:17.057Z,9.10
2019-02-04T16:35:54.473Z,10.27
2019-02-04T16:38:26.392Z,11.53
2019-02-04T16:40:55.899Z,10.97
2019-02-04T16:43:25.010Z,9.07
2019-02-04T16:45:54.122Z,13.27
2019-02-04T16:48:23.603Z,12.77
2019-02-04T16:51:09.562Z,13.13
2019-02-04T16:53:26.644Z,12.73
2019-02-04T16:55:56.011Z,12.13
2019-02-04T16:58:25.130Z,9.73
2019-02-04T17:00:55.259Z,11.70
2019-02-04T17:03:26.072Z,11.30
2019-02-04T17:05:56.871Z,13.20
2019-02-04T17:08:26.992Z,9.87
2019-02-04T17:10:56.157Z,10.50
2019-02-04T17:13:25.271Z,11.70
2019-02-04T17:15:54.418Z,12.00
2019-02-04T17:18:23.507Z,9.60
2019-02-04T17:20:52.604Z,14.23
2019-02-04T17:23:22.754Z,9.27
2019-02-04T17:25:52.033Z,13.17
2019-02-04T17:28:21.243Z,8.40
2019-02-04T17:30:50.364Z,11.63
2019-02-04T17:33:19.493Z,15.23
2019-02-04T17:35:48.584Z,10.13
2019-02-04T17:38:17.715Z,10.30
2019-02-04T17:40:46.871Z,7.83
2019-02-04T17:43:15.973Z,8.97
2019-02-04T17:45:45.075Z,10.80
2019-02-04T17:48:14.202Z,11.23
2019-02-04T17:50:43.297Z,7.83
2019-02-04T17:53:12.391Z,10.80
2019-02-04T17:55:41.521Z,10.63
2019-02-04T17:58:10.625Z,11.00
2019-02-04T18:00:50.700Z,11.23
2019-02-04T18:03:21.036Z,17.33
2019-02-04T18:05:50.138Z,10.47
2019-02-04T18:08:19.317Z,9.07
2019-02-04T18:10:48.468Z,9.87
2019-02-04T18:13:18.458Z,9.50
2019-02-04T18:15:47.647Z,7.83
2019-02-04T18:18:16.861Z,11.20
2019-02-04T18:20:46.065Z,10.67
2019-02-04T18:23:17.940Z,9.67
2019-02-04T18:25:48.675Z,10.67
2019-02-04T18:28:20.946Z,10.17
2019-02-04T18:30:50.954Z,8.93
2019-02-04T18:33:20.053Z,8.00
2019-02-04T18:35:49.151Z,9.10
2019-02-04T18:38:18.261Z,8.17
2019-02-04T18:40:48.769Z,10.33
2019-02-04T18:43:17.930Z,8.60
2019-02-04T18:45:47.039Z,7.47
2019-02-04T18:48:16.150Z,7.90
2019-02-04T18:50:45.633Z,7.20
2019-02-04T18:53:14.732Z,6.27
2019-02-04T18:55:43.859Z,9.07
2019-02-04T18:58:13.938Z,8.13
2019-02-04T19:00:43.559Z,6.00
2019-02-04T19:03:17.256Z,9.07
2019-02-04T19:05:43.878Z,9.37
2019-02-04T19:08:13.251Z,8.00
2019-02-04T19:10:42.464Z,6.90
2019-02-04T19:13:13.198Z,9.17
2019-02-04T19:15:42.622Z,9.80
2019-02-04T19:18:13.896Z,9.73
2019-02-04T19:20:43.058Z,9.70
2019-02-04T19:23:13.804Z,8.47
2019-02-04T19:25:42.974Z,8.17
2019-02-04T19:28:12.176Z,9.43
2019-02-04T19:30:49.282Z,8.70
2019-02-04T19:33:18.493Z,9.67
2019-02-04T19:35:47.656Z,9.50
2019-02-04T19:38:16.809Z,9.60
2019-02-04T19:40:45.904Z,9.00
2019-02-04T19:43:15.382Z,9.87
2019-02-04T19:45:44.503Z,7.23
2019-02-04T19:48:13.641Z,11.83
2019-02-04T19:50:42.739Z,9.07
2019-02-04T19:53:12.893Z,9.00
2019-02-04T19:56:00.884Z,7.83
2019-02-04T19:58:36.634Z,7.13
2019-02-04T20:01:05.734Z,5.67
2019-02-04T20:03:37.033Z,8.47
2019-02-04T20:06:05.644Z,7.40
2019-02-04T20:08:35.229Z,10.50
2019-02-04T20:11:04.404Z,7.63
2019-02-04T20:13:33.541Z,7.97
2019-02-04T20:16:02.850Z,8.33
2019-02-04T20:18:32.980Z,8.47
2019-02-04T20:21:02.074Z,9.30
2019-02-04T20:23:31.483Z,10.67
2019-02-04T20:26:00.573Z,10.23
2019-02-04T20:28:29.684Z,7.63
2019-02-04T20:30:58.791Z,11.30
2019-02-04T20:33:28.644Z,8.67
2019-02-04T20:35:57.804Z,8.23
2019-02-04T20:38:27.473Z,13.00
2019-02-04T20:41:08.906Z,14.20
2019-02-04T20:43:38.191Z,14.83
2019-02-04T20:46:07.292Z,10.33
2019-02-04T20:48:36.399Z,9.57
2019-02-04T20:51:05.769Z,13.30
2019-02-04T20:53:34.867Z,9.63
2019-02-04T20:56:04.064Z,9.37
2019-02-04T20:58:34.853Z,8.40
2019-02-04T21:01:04.215Z,9.80
2019-02-04T21:03:33.310Z,9.77
2019-02-04T21:06:02.723Z,8.63
2019-02-04T21:08:31.826Z,8.87
2019-02-04T21:11:00.915Z,8.57
2019-02-04T21:13:30.018Z,9.50
2019-02-04T21:15:59.180Z,9.27
2019-02-04T21:18:28.284Z,8.53
2019-02-04T21:20:57.752Z,8.73
2019-02-04T21:23:27.364Z,6.93
2019-02-04T21:25:56.463Z,7.93
2019-02-04T21:28:27.209Z,11.97
2019-02-04T21:30:59.571Z,10.07
2019-02-04T21:33:28.681Z,10.07
2019-02-04T21:35:57.852Z,8.03
2019-02-04T21:38:28.131Z,12.73
2019-02-04T21:40:57.223Z,7.63
2019-02-04T21:43:26.327Z,9.70
2019-02-04T21:45:55.418Z,9.97
2019-02-04T21:48:24.523Z,7.17
2019-02-04T21:50:53.642Z,6.83
2019-02-04T21:53:22.742Z,8.93
2019-02-04T21:55:51.847Z,8.30
2019-02-04T21:58:25.447Z,6.97
2019-02-04T22:00:54.670Z,7.87
2019-02-04T22:03:27.602Z,7.83
2019-02-04T22:05:56.691Z,8.77
2019-02-04T22:08:25.799Z,12.17
2019-02-04T22:10:58.155Z,8.77
2019-02-04T22:13:28.971Z,9.90
2019-02-04T22:16:04.508Z,7.30
2019-02-04T22:18:33.615Z,8.53
2019-02-04T22:21:02.726Z,7.40
2019-02-04T22:23:37.020Z,9.80
2019-02-04T22:26:06.371Z,13.77
2019-02-04T22:28:35.673Z,8.83
2019-02-04T22:31:06.865Z,6.13
2019-02-04T22:33:38.747Z,8.93
2019-02-04T22:36:10.604Z,10.13
2019-02-04T22:42:05.551Z,8.47
2019-02-04T22:44:39.354Z,11.60
2019-02-04T22:47:08.462Z,9.90
2019-02-04T22:49:40.122Z,6.30
2019-02-04T22:52:13.224Z,10.40
2019-02-04T22:58:18.326Z,9.40
2019-02-04T23:00:50.877Z,9.57
2019-02-04T23:03:23.934Z,9.17
2019-02-04T23:05:53.045Z,8.63
2019-02-04T23:08:22.122Z,8.20
2019-02-04T23:10:51.230Z,9.27
2019-02-04T23:13:22.007Z,11.67
2019-02-04T23:15:53.969Z,8.87
2019-02-04T23:18:22.398Z,10.67
2019-02-04T23:20:51.495Z,7.73
2019-02-04T23:23:20.612Z,10.13
2019-02-04T23:25:49.723Z,10.07
2019-02-04T23:28:18.823Z,10.43
2019-02-04T23:30:48.407Z,10.43
2019-02-04T23:33:17.522Z,12.33
2019-02-04T23:35:46.663Z,8.50
2019-02-04T23:38:15.758Z,7.83
2019-02-04T23:40:44.863Z,7.07
2019-02-04T23:43:13.991Z,10.43
2019-02-04T23:45:43.376Z,8.00
2019-02-04T23:48:12.468Z,11.90
2019-02-04T23:50:41.566Z,9.10
2019-02-04T23:53:10.659Z,9.23
2019-02-04T23:55:39.780Z,7.73
2019-02-04T23:58:08.884Z,11.30
